LGIRLGKP

Guest
Details From LGIR - Iraklion - Nizos Kazantzakis
To LGKP - KARPATHOS
Flight Number -
Tags generated
Created
Modified
Stats Distance 96 nm / 179 km
Max Altitude 0 ft / 0 m
Waypoints 3
Social Downloads 0
Likes 0
Share VATSIM

Download

Looking for another format? Having issues loading an existing format? Contact us
Advertisement - Login to hide

Notes

Basic altitude profile: - Ascent Rate: 2500ft/min - Ascent Speed: 250kts - Cruise Altitude: 13000ft - Cruise Speed: 420kts - Descent Rate: 1500ft/min - Descent Speed: 250kts Options: - Use NATs: no - Use PACOTS: no - Use low airways: yes - Use high airways: no

Route

LGIR IRA LGKP

ID Type Via Altitude Latitude Longitude Leg Dist Tot Dist Heading (true) Name
O LGIR APT - 0 ft / 0 m 35.33949˚ 25.18012˚ - 0 nm - Iraklion - Nizos Kazantzakis
IRA VOR - 0 ft / 0 m 35.34083˚ 25.18528˚ 0 nm 0 nm 72° / 72° IRAKLION VOR-DME
O LGKP APT - 0 ft / 0 m 35.42141˚ 27.14601˚ 96 nm 96 nm 87° / 88° KARPATHOS

Altitude Profile

Advertisement - Login to hide

LGIR

Details ICAO LGIR (HER)
Name Iraklion - Nizos Kazantzakis
Region Greece
Timezone Europe/Athens (UTC+2.0)
Stats Elevation 115 ft / 35 m (AMSL)
Location 35.339487° 25.180120°
Runways 3
Magnetic Variation 4.380° E

METAR

LGIR 152320Z 17008KT 9999 FEW025 14/10 Q1018 NOSIG

Decode

TAF

TAF LGIR 151700Z 1518/1618 17008KT 9999 BKN025 BECMG 1604/1606 18015G25KT BECMG 1608/1610 18020G30KT

Decode

Departure Runways

ID Width Length Bearing (true) Bearing (mag) Surface Threshold Offset Overrun Length
09 148 ft / 45 m 8,755 ft / 2,669 m 94.84° 90.46° Asphalt 1,565 ft / 477 m 200 ft / 61 m
12 164 ft / 50 m 5,136 ft / 1,566 m 126.27° 121.89° Asphalt 499 ft / 152 m 190 ft / 58 m
18 131 ft / 40 m 2,607 ft / 795 m 180.40° 176.02° Asphalt 0 ft / 0 m 0 ft / 0 m
27 148 ft / 45 m 8,755 ft / 2,669 m 274.86° 270.48° Asphalt 0 ft / 0 m 210 ft / 64 m
30 164 ft / 50 m 5,136 ft / 1,566 m 306.28° 301.90° Asphalt 0 ft / 0 m 0 ft / 0 m
36 131 ft / 40 m 2,607 ft / 795 m 0.40° 356.02° Asphalt 328 ft / 100 m 0 ft / 0 m

LGKP

Details ICAO LGKP (AOK)
Name KARPATHOS
Region Greece
Timezone Europe/Athens (UTC+2.0)
Stats Elevation 66 ft / 20 m (AMSL)
Location 35.421407° 27.146007°
Runways 1
Magnetic Variation 4.589° E

METAR

LGKP 152320Z AUTO 23012KT //// -RA ////// 18/11 Q1019 RE//

Decode

TAF

Not found

Destination Runways

ID Width Length Bearing (true) Bearing (mag) Surface Threshold Offset Overrun Length
12 98 ft / 30 m 7,866 ft / 2,398 m 124.49° 119.90° Asphalt 492 ft / 150 m 983 ft / 300 m
30 98 ft / 30 m 7,866 ft / 2,398 m 304.50° 299.91° Asphalt 492 ft / 150 m 458 ft / 140 m

Popular Alternatives